Aiviq — WDG2524 — position and weather

sailwx.info

Track history (hours):
 
Tides and Currents Weather Stations Pressure Air Temp Water Temp Dewpoint Dewpoint Depression Visibility Wind Speed Wind Dir Waves Ship Positions

Aiviq

Owner: Offshore Service Vessels, L.L.C., Galliano, LA. More information available from US FCC via Universal Licensing System and Coast Guard Vessel Documentation Center.

Last reported at 2015-May-26 04:31 UTC. Time now 2015-May-26 05:42 UTC.
Position N 47°58' W 122°14'.

Length 109 m; draft 8.5 m.

Type: Towing. MMSI: 367141000.

Date/timePositionNaut miles runAvg speedWind from/ knotsBaromVisibWave heightAir tempDewpointWater temp
2015-May-26 04:31N 47°58' W 122°14'0 0.0
2015-May-26 03:31N 47°58' W 122°14'0 0.0
2015-May-26 02:31N 47°58' W 122°14'0 0.0
2015-May-26 01:31N 47°58' W 122°14'0 0.0
2015-May-26 00:31N 47°58' W 122°14'0 0.0
2015-May-25 23:31N 47°58' W 122°14'0 0.0
2015-May-25 22:31N 47°58' W 122°14'0 0.0
2015-May-25 21:31N 47°58' W 122°14'0 0.0
2015-May-25 20:31N 47°58' W 122°14'0 0.0
2015-May-25 19:31N 47°58' W 122°14'0 0.0
2015-May-25 18:33N 47°58' W 122°14'5 5.2
2015-May-25 17:33N 47°56' W 122°20'9 9.4
2015-May-25 16:37N 47°48' W 122°25'111.2
2015-May-25 16:33N 47°47' W 122°26'0 8.7
2015-May-25 16:32N 47°47' W 122°26'1010.0
2015-May-25 15:33N 47°37' W 122°27'0 8.7
2015-May-25 15:32N 47°37' W 122°27'1010.0
2015-May-25 14:33N 47°27' W 122°24'8 8.3
2015-May-25 13:33N 47°19' W 122°27'1 0.0
2015-May-24 16:34N 47°20' W 122°28'810.0
2015-May-24 15:45N 47°28' W 122°25'213.0
2015-May-24 15:33N 47°30' W 122°26'112.0
2015-May-24 15:30N 47°31' W 122°26'5 5.5
2015-May-24 14:34N 47°35' W 122°22'0 1.2
2015-May-24 14:29N 47°35' W 122°22'0 0.1
2015-May-24 13:32N 47°35' W 122°22'0 0.0
2015-May-24 12:32N 47°35' W 122°22'0 0.0
2015-May-24 11:59N 47°35' W 122°22'0 0.0
2015-May-24 11:32N 47°35' W 122°22'0 0.0
2015-May-24 10:29N 47°35' W 122°22'0 0.0
2015-May-24 09:29N 47°35' W 122°22'0 0.0
2015-May-24 08:53N 47°35' W 122°22'0 0.0
2015-May-24 08:26N 47°35' W 122°22'0 0.0
2015-May-24 07:53N 47°35' W 122°22'0 0.0
2015-May-24 07:26N 47°35' W 122°22'0 0.0
2015-May-24 07:23N 47°35' W 122°22'0 0.0
2015-May-24 06:23N 47°35' W 122°22'0 0.0
2015-May-24 05:32N 47°35' W 122°22'0 0.0
2015-May-24 05:17N 47°35' W 122°22'0 0.0
2015-May-24 04:29N 47°35' W 122°22'0 0.0
2015-May-24 04:02N 47°35' W 122°22'0 0.0
2015-May-24 03:32N 47°35' W 122°22'0 0.0
2015-May-24 03:32N 47°35' W 122°22'0 0.0
2015-May-24 02:26N 47°35' W 122°22'0 0.0
2015-May-24 02:26N 47°35' W 122°22'0 0.0
2015-May-24 01:29N 47°35' W 122°22'0 0.0
2015-May-24 01:11N 47°35' W 122°22'0 0.0
2015-May-24 00:23N 47°35' W 122°22'0 0.0
2015-May-23 23:41N 47°35' W 122°22'0 0.0
2015-May-23 23:23N 47°35' W 122°22'0 0.0
2015-May-23 23:20N 47°35' W 122°22'0 0.0
2015-May-23 22:20N 47°35' W 122°22'0 0.0
2015-May-23 22:20N 47°35' W 122°22'0 0.0
2015-May-23 21:17N 47°35' W 122°22'0 0.0
2015-May-23 20:29N 47°35' W 122°22'0 0.0
2015-May-23 19:53N 47°35' W 122°22'0 0.0
2015-May-23 19:29N 47°35' W 122°22'0 0.0
2015-May-23 18:53N 47°35' W 122°22'0 0.0
2015-May-23 18:32N 47°35' W 122°22'0 0.0
2015-May-23 18:23N 47°35' W 122°22'0 0.0
2015-May-23 17:32N 47°35' W 122°22'0 0.0
2015-May-23 16:26N 47°35' W 122°22'0 0.0
2015-May-23 16:17N 47°35' W 122°22'0 0.0
2015-May-23 15:29N 47°35' W 122°22'0 0.0
2015-May-23 15:11N 47°35' W 122°22'0 0.0
2015-May-23 14:29N 47°35' W 122°22'0 0.0
2015-May-23 14:26N 47°35' W 122°22'0 0.0
2015-May-23 13:26N 47°35' W 122°22'0 0.0
2015-May-23 13:26N 47°35' W 122°22'0 0.0
2015-May-23 12:29N 47°35' W 122°22'0 0.0
2015-May-23 12:05N 47°35' W 122°22'0 0.0
2015-May-23 11:20N 47°35' W 122°22'0 0.0
2015-May-23 11:20N 47°35' W 122°22'0 0.0
2015-May-23 10:17N 47°35' W 122°22'0 0.0
2015-May-23 09:59N 47°35' W 122°22'0 0.0
2015-May-23 09:32N 47°35' W 122°22'0 0.0
2015-May-23 09:14N 47°35' W 122°22'0 0.0
2015-May-23 08:29N 47°35' W 122°22'0 0.0
2015-May-23 08:29N 47°35' W 122°22'0 0.0
2015-May-23 07:29N 47°35' W 122°22'0 0.0
2015-May-23 07:29N 47°35' W 122°22'0 0.0
2015-May-23 06:29N 47°35' W 122°22'0 0.0
2015-May-23 05:20N 47°35' W 122°22'0 0.0
2015-May-23 04:05N 47°35' W 122°22'0 0.0
2015-May-23 03:32N 47°35' W 122°22'0 0.0
2015-May-23 02:32N 47°35' W 122°22'0 0.0
2015-May-23 01:14N 47°35' W 122°22'0 0.0
2015-May-23 01:14N 47°35' W 122°22'0 0.0
2015-May-23 00:29N 47°35' W 122°22'0 0.0
2015-May-23 00:29N 47°35' W 122°22'0 0.0
2015-May-22 23:26N 47°35' W 122°22'0 0.0
2015-May-22 22:26N 47°35' W 122°22'0 0.0
2015-May-22 22:08N 47°35' W 122°22'0 0.0
2015-May-22 21:23N 47°35' W 122°22'0 0.0
2015-May-22 21:23N 47°35' W 122°22'0 0.0
2015-May-22 20:23N 47°35' W 122°22'0 0.0
2015-May-22 20:23N 47°35' W 122°22'0 0.0
2015-May-22 19:32N 47°35' W 122°22'0 0.0
2015-May-22 18:32N 47°35' W 122°22'0 0.0
2015-May-22 17:20N 47°35' W 122°22'0 0.0
2015-May-22 16:32N 47°35' W 122°22'0 0.0
2015-May-22 14:32N 47°35' W 122°22'0 0.0
2015-May-22 13:20N 47°35' W 122°22'0 0.0
2015-May-22 13:08N 47°35' W 122°22'0 0.0
2015-May-22 11:47N 47°35' W 122°22'0 0.0
2015-May-22 11:32N 47°35' W 122°22'0 0.0
2015-May-22 11:32N 47°35' W 122°22'0 0.0
2015-May-22 10:32N 47°35' W 122°22'0 0.0
2015-May-22 10:32N 47°35' W 122°22'0 0.0
2015-May-22 09:29N 47°35' W 122°22'0 0.0
2015-May-22 08:11N 47°35' W 122°22'0 0.0
2015-May-22 07:23N 47°35' W 122°22'0 0.0
2015-May-22 06:08N 47°35' W 122°22'0 0.0
2015-May-22 05:29N 47°35' W 122°22'0 0.0
2015-May-22 05:29N 47°35' W 122°22'0 0.0
2015-May-22 04:26N 47°35' W 122°22'0 0.0
2015-May-22 04:08N 47°35' W 122°22'0 0.0
2015-May-22 03:08N 47°35' W 122°22'0 0.0
2015-May-22 03:08N 47°35' W 122°22'0 0.0
2015-May-22 02:20N 47°35' W 122°22'0 0.0
2015-May-22 01:17N 47°35' W 122°22'0 0.0
2015-May-22 00:47N 47°35' W 122°22'0 0.0
2015-May-22 00:32N 47°35' W 122°22'0 0.0
2015-May-22 00:32N 47°35' W 122°22'0 0.0
2015-May-21 23:29N 47°35' W 122°22'0 0.0
2015-May-21 22:29N 47°35' W 122°22'0 0.0
2015-May-21 22:26N 47°35' W 122°22'0 0.0
2015-May-21 21:26N 47°35' W 122°22'0 0.0
2015-May-21 20:29N 47°35' W 122°22'0 0.0
2015-May-21 18:05N 47°35' W 122°22'0 0.0
2015-May-21 17:32N 47°35' W 122°22'0 0.0
2015-May-21 16:20N 47°35' W 122°22'0 0.0
2015-May-21 15:20N 47°35' W 122°22'0 0.0
2015-May-21 15:02N 47°35' W 122°22'0 0.0
2015-May-21 14:32N 47°35' W 122°22'0 0.0
2015-May-21 14:32N 47°35' W 122°22'0 0.0
2015-May-21 13:32N 47°35' W 122°22'0 0.0
2015-May-21 13:32N 47°35' W 122°22'0 0.0
2015-May-21 12:17N 47°35' W 122°22'0 0.0
2015-May-21 11:56N 47°35' W 122°22'0 0.0
2015-May-21 11:26N 47°35' W 122°22'0 0.0
2015-May-21 11:26N 47°35' W 122°22'0 0.0
2015-May-21 10:32N 47°35' W 122°22'0 0.0
2015-May-21 09:50N 47°35' W 122°22'0 0.0
2015-May-21 09:23N 47°35' W 122°22'0 0.0
2015-May-21 08:26N 47°35' W 122°22'0 0.0
2015-May-21 06:59N 47°35' W 122°22'0 0.0
2015-May-21 06:14N 47°35' W 122°22'0 0.0
2015-May-21 05:59N 47°35' W 122°22'0 0.0
2015-May-21 05:26N 47°35' W 122°22'0 0.0
2015-May-21 04:32N 47°35' W 122°22'0 0.0
2015-May-21 02:53N 47°35' W 122°22'0 0.0
2015-May-21 02:11N 47°35' W 122°22'0 0.0
2015-May-21 01:32N 47°35' W 122°22'0 0.0
2015-May-21 01:29N 47°35' W 122°22'0 0.0
2015-May-21 00:29N 47°35' W 122°22'0 0.0
2015-May-20 23:29N 47°35' W 122°22'0 0.0
2015-May-20 22:11N 47°35' W 122°22'0 0.0
2015-May-20 22:11N 47°35' W 122°22'0 0.0
2015-May-20 20:23N 47°35' W 122°22'0 0.0
2015-May-20 19:17N 47°35' W 122°22'0 0.0
2015-May-20 19:05N 47°35' W 122°22'0 0.0
2015-May-20 18:23N 47°35' W 122°22'0 0.0
2015-May-20 17:11N 47°35' W 122°22'0 0.0
2015-May-20 16:26N 47°35' W 122°22'0 0.0
2015-May-20 16:08N 47°35' W 122°22'0 0.0
2015-May-20 15:17N 47°35' W 122°22'0 0.0
2015-May-20 10:23N 47°35' W 122°22'0 0.0
2015-May-20 08:59N 47°35' W 122°22'0 0.0
2015-May-20 08:11N 47°35' W 122°22'0 0.0
2015-May-20 07:23N 47°35' W 122°22'0 0.0
2015-May-20 06:08N 47°35' W 122°22'0 0.0
2015-May-20 06:05N 47°35' W 122°22'0 0.0
2015-May-19 16:05N 47°35' W 122°22'0 0.0
2015-May-19 13:23N 47°35' W 122°22'0 0.0
2015-May-19 12:05N 47°35' W 122°22'0 0.0
2015-May-19 11:40N 47°35' W 122°22'0 0.0
2015-May-19 11:32N 47°35' W 122°22'0 0.0
2015-May-19 11:10N 47°35' W 122°22'0 0.0
2015-May-19 10:29N 47°35' W 122°22'0 0.0
2015-May-19 10:25N 47°35' W 122°22'0 0.0
2015-May-19 09:32N 47°35' W 122°22'0 0.0
2015-May-19 09:04N 47°35' W 122°22'0 0.0
2015-May-19 08:32N 47°35' W 122°22'0 0.0
2015-May-19 08:04N 47°35' W 122°22'0 0.0
2015-May-19 07:32N 47°35' W 122°22'0 0.0
2015-May-19 07:19N 47°35' W 122°22'0 0.0
2015-May-19 06:32N 47°35' W 122°22'0 0.0
2015-May-19 06:04N 47°35' W 122°22'0 0.0
2015-May-19 05:32N 47°35' W 122°22'0 0.0
2015-May-19 05:28N 47°35' W 122°22'0 0.0
2015-May-19 04:32N 47°35' W 122°22'0 0.0
2015-May-19 04:28N 47°35' W 122°22'0 0.0
2015-May-19 02:40N 47°35' W 122°22'0 0.0
2015-May-19 02:32N 47°35' W 122°22'0 0.0
2015-May-19 02:25N 47°35' W 122°22'0 0.0
2015-May-19 01:32N 47°35' W 122°22'0 0.0
2015-May-19 01:11N 47°35' W 122°22'0 0.0
2015-May-19 00:29N 47°35' W 122°22'0 0.0
2015-May-18 23:55N 47°35' W 122°22'0 0.0
2015-May-18 23:32N 47°35' W 122°22'0 0.0
2015-May-18 23:25N 47°35' W 122°22'0 0.0
2015-May-18 22:20N 47°35' W 122°22'0 0.0
2015-May-18 22:19N 47°35' W 122°22'0 0.0
2015-May-18 21:32N 47°35' W 122°22'0 0.0
2015-May-18 21:28N 47°35' W 122°22'0 0.0
2015-May-18 20:29N 47°35' W 122°22'0 0.0
2015-May-18 20:28N 47°35' W 122°22'0 0.0
2015-May-18 19:32N 47°35' W 122°22'0 0.0
2015-May-18 19:13N 47°35' W 122°22'0 0.0
2015-May-18 18:17N 47°35' W 122°22'0 0.0
2015-May-18 18:07N 47°35' W 122°22'0 0.0
2015-May-18 17:29N 47°35' W 122°22'0 0.0
2015-May-18 17:01N 47°35' W 122°22'0 0.0
2015-May-18 16:32N 47°35' W 122°22'0 0.0
2015-May-18 16:31N 47°35' W 122°22'0 0.0
2015-May-18 15:29N 47°35' W 122°22'0 0.0
2015-May-18 15:16N 47°35' W 122°22'0 0.0
2015-May-18 14:28N 47°35' W 122°22'0 0.0
2015-May-18 13:55N 47°35' W 122°22'0 0.0
2015-May-18 13:19N 47°35' W 122°22'0 0.0
2015-May-18 13:14N 47°35' W 122°22'0 0.0
2015-May-18 12:32N 47°35' W 122°22'0 0.0
2015-May-18 12:19N 47°35' W 122°22'0 0.0
2015-May-18 11:29N 47°35' W 122°22'0 0.0
2015-May-18 11:19N 47°35' W 122°22'0 0.0
2015-May-18 10:16N 47°35' W 122°22'0 0.0
2015-May-18 10:13N 47°35' W 122°22'0 0.0
2015-May-18 09:11N 47°35' W 122°22'0 0.0
2015-May-18 09:07N 47°35' W 122°22'0 0.0
2015-May-18 08:32N 47°35' W 122°22'0 0.0
2015-May-18 08:07N 47°35' W 122°22'0 0.0
2015-May-18 07:32N 47°35' W 122°22'0 0.0
2015-May-18 07:22N 47°35' W 122°22'0 0.0
2015-May-18 06:32N 47°35' W 122°22'0 0.0
2015-May-18 06:31N 47°35' W 122°22'0 0.0
2015-May-18 05:40N 47°35' W 122°22'0 0.0
2015-May-18 05:31N 47°35' W 122°22'0 0.0
2015-May-18 04:32N 47°35' W 122°22'0 0.0
2015-May-18 04:25N 47°35' W 122°22'0 0.0
2015-May-18 03:31N 47°35' W 122°22'0 0.0
2015-May-18 03:25N 47°35' W 122°22'0 0.0
2015-May-18 02:28N 47°35' W 122°22'0 0.0
2015-May-18 02:19N 47°35' W 122°22'0 0.0
2015-May-18 01:32N 47°35' W 122°22'0 0.0
2015-May-18 01:28N 47°35' W 122°22'0 0.0
2015-May-18 00:32N 47°35' W 122°22'0 0.0
2015-May-18 00:28N 47°35' W 122°22'0 0.0
2015-May-17 23:31N 47°35' W 122°22'0 0.0
2015-May-17 23:28N 47°35' W 122°22'0 0.0
2015-May-17 22:25N 47°35' W 122°22'0 0.0
2015-May-17 21:52N 47°35' W 122°22'0 0.0
2015-May-17 21:28N 47°35' W 122°22'0 0.0
2015-May-17 21:22N 47°35' W 122°22'0 0.0
2015-May-17 20:28N 47°35' W 122°22'0 0.0
2015-May-17 19:46N 47°35' W 122°22'0 0.0
2015-May-17 19:13N 47°35' W 122°22'0 0.0
2015-May-17 19:01N 47°35' W 122°22'0 0.0
2015-May-17 18:31N 47°35' W 122°22'0 0.0
2015-May-17 18:31N 47°35' W 122°22'0 0.0
2015-May-17 17:31N 47°35' W 122°22'0 0.0
2015-May-17 17:31N 47°35' W 122°22'0 0.0
2015-May-17 16:31N 47°35' W 122°22'0 0.0
2015-May-17 15:34N 47°35' W 122°22'0 0.0
2015-May-17 15:28N 47°35' W 122°22'0 0.0
2015-May-17 14:25N 47°35' W 122°22'0 0.0
2015-May-17 14:13N 47°35' W 122°22'0 0.0
2015-May-17 13:31N 47°35' W 122°22'0 0.0
2015-May-17 13:16N 47°35' W 122°22'0 0.0
2015-May-17 12:31N 47°35' W 122°22'0 0.0
2015-May-17 12:28N 47°35' W 122°22'0 0.0
2015-May-17 11:25N 47°35' W 122°22'0 0.0
2015-May-17 11:25N 47°35' W 122°22'0 0.0
2015-May-17 10:28N 47°35' W 122°22'0 0.0
2015-May-17 10:25N 47°35' W 122°22'0 0.0
2015-May-17 09:19N 47°35' W 122°22'0 0.0
2015-May-17 09:19N 47°35' W 122°22'0 0.0
2015-May-17 08:31N 47°35' W 122°22'0 0.0
2015-May-17 08:28N 47°35' W 122°22'0 0.0
2015-May-17 07:31N 47°35' W 122°22'0 0.0
2015-May-17 07:28N 47°35' W 122°22'0 0.0
2015-May-17 06:31N 47°35' W 122°22'0 0.0
2015-May-17 06:28N 47°35' W 122°22'0 0.0
2015-May-17 05:28N 47°35' W 122°22'0 0.0
2015-May-17 05:25N 47°35' W 122°22'0 0.0
2015-May-17 04:31N 47°35' W 122°22'0 0.0
2015-May-17 04:28N 47°35' W 122°22'0 0.0
2015-May-17 03:31N 47°35' W 122°22'0 0.0
2015-May-17 02:52N 47°35' W 122°22'0 0.0
2015-May-17 02:31N 47°35' W 122°22'0 0.0
2015-May-17 02:22N 47°35' W 122°22'0 0.0
2015-May-17 01:28N 47°35' W 122°22'0 0.0
2015-May-17 01:25N 47°35' W 122°22'0 0.0
2015-May-17 00:31N 47°35' W 122°22'0 0.0
2015-May-16 23:34N 47°35' W 122°22'0 0.0
2015-May-16 23:31N 47°35' W 122°22'0 0.0
2015-May-16 23:19N 47°35' W 122°22'0 0.0
2015-May-16 22:31N 47°35' W 122°22'0 0.0
2015-May-16 22:28N 47°35' W 122°22'0 0.0
2015-May-16 21:31N 47°35' W 122°22'0 0.0
2015-May-16 21:28N 47°35' W 122°22'0 0.0
2015-May-16 20:31N 47°35' W 122°22'0 0.0
2015-May-16 20:28N 47°35' W 122°22'0 0.0
2015-May-16 19:31N 47°35' W 122°22'0 0.0
2015-May-16 19:28N 47°35' W 122°22'0 0.0
2015-May-16 18:31N 47°35' W 122°22'0 0.0
2015-May-16 18:07N 47°35' W 122°22'0 0.0
2015-May-16 17:07N 47°35' W 122°22'0 0.0
2015-May-16 17:07N 47°35' W 122°22'0 0.0
2015-May-16 16:31N 47°35' W 122°22'0 0.0
2015-May-16 16:31N 47°35' W 122°22'0 0.0
2015-May-16 15:28N 47°35' W 122°22'0 0.0
2015-May-16 14:28N 47°35' W 122°22'0 0.0
2015-May-16 14:04N 47°35' W 122°22'0 0.0
2015-May-16 13:28N 47°35' W 122°22'0 0.0
2015-May-16 13:19N 47°35' W 122°22'0 0.0
2015-May-16 12:31N 47°35' W 122°22'0 0.0
2015-May-16 12:19N 47°35' W 122°22'0 0.0
2015-May-16 11:31N 47°35' W 122°22'0 0.0
2015-May-16 11:19N 47°35' W 122°22'0 0.0
2015-May-16 10:25N 47°35' W 122°22'0 0.0
2015-May-16 10:19N 47°35' W 122°22'0 0.0
2015-May-16 09:31N 47°35' W 122°22'0 0.0
2015-May-16 09:28N 47°35' W 122°22'0 0.0
2015-May-16 08:31N 47°35' W 122°22'0 0.0
2015-May-16 08:28N 47°35' W 122°22'0 0.0
2015-May-16 07:31N 47°35' W 122°22'0 0.0
2015-May-16 07:28N 47°35' W 122°22'0 0.0
2015-May-16 06:31N 47°35' W 122°22'0 0.0
2015-May-16 06:22N 47°35' W 122°22'0 0.0
2015-May-16 05:52N 47°35' W 122°22'0 0.0
2015-May-16 05:31N 47°35' W 122°22'  
Track history (hours):
 
Tides and Currents Weather Stations Pressure Air Temp Water Temp Dewpoint Dewpoint Depression Visibility Wind Speed Wind Dir Waves Ship Positions

Aiviq

Owner: Offshore Service Vessels, L.L.C., Galliano, LA. More information available from US FCC via Universal Licensing System and Coast Guard Vessel Documentation Center.

Last reported at 2015-May-26 04:31 UTC. Time now 2015-May-26 05:42 UTC.
Position N 47°58' W 122°14'.

Length 109 m; draft 8.5 m.

Type: Towing. MMSI: 367141000.

Date/timePositionNaut miles runAvg speedWind from/ knotsBaromVisibWave heightAir tempDewpointWater temp
2015-May-26 04:31N 47°58' W 122°14'0 0.0
2015-May-26 03:31N 47°58' W 122°14'0 0.0
2015-May-26 02:31N 47°58' W 122°14'0 0.0
2015-May-26 01:31N 47°58' W 122°14'0 0.0
2015-May-26 00:31N 47°58' W 122°14'0 0.0
2015-May-25 23:31N 47°58' W 122°14'0 0.0
2015-May-25 22:31N 47°58' W 122°14'0 0.0
2015-May-25 21:31N 47°58' W 122°14'0 0.0
2015-May-25 20:31N 47°58' W 122°14'0 0.0
2015-May-25 19:31N 47°58' W 122°14'0 0.0
2015-May-25 18:33N 47°58' W 122°14'5 5.2
2015-May-25 17:33N 47°56' W 122°20'9 9.4
2015-May-25 16:37N 47°48' W 122°25'111.2
2015-May-25 16:33N 47°47' W 122°26'0 8.7
2015-May-25 16:32N 47°47' W 122°26'1010.0
2015-May-25 15:33N 47°37' W 122°27'0 8.7
2015-May-25 15:32N 47°37' W 122°27'1010.0
2015-May-25 14:33N 47°27' W 122°24'8 8.3
2015-May-25 13:33N 47°19' W 122°27'1 0.0
2015-May-24 16:34N 47°20' W 122°28'810.0
2015-May-24 15:45N 47°28' W 122°25'213.0
2015-May-24 15:33N 47°30' W 122°26'112.0
2015-May-24 15:30N 47°31' W 122°26'5 5.5
2015-May-24 14:34N 47°35' W 122°22'0 1.2
2015-May-24 14:29N 47°35' W 122°22'0 0.1
2015-May-24 13:32N 47°35' W 122°22'0 0.0
2015-May-24 12:32N 47°35' W 122°22'0 0.0
2015-May-24 11:59N 47°35' W 122°22'0 0.0
2015-May-24 11:32N 47°35' W 122°22'0 0.0
2015-May-24 10:29N 47°35' W 122°22'0 0.0
2015-May-24 09:29N 47°35' W 122°22'0 0.0
2015-May-24 08:53N 47°35' W 122°22'0 0.0
2015-May-24 08:26N 47°35' W 122°22'0 0.0
2015-May-24 07:53N 47°35' W 122°22'0 0.0
2015-May-24 07:26N 47°35' W 122°22'0 0.0
2015-May-24 07:23N 47°35' W 122°22'0 0.0
2015-May-24 06:23N 47°35' W 122°22'0 0.0
2015-May-24 05:32N 47°35' W 122°22'0 0.0
2015-May-24 05:17N 47°35' W 122°22'0 0.0
2015-May-24 04:29N 47°35' W 122°22'0 0.0
2015-May-24 04:02N 47°35' W 122°22'0 0.0
2015-May-24 03:32N 47°35' W 122°22'0 0.0
2015-May-24 03:32N 47°35' W 122°22'0 0.0
2015-May-24 02:26N 47°35' W 122°22'0 0.0
2015-May-24 02:26N 47°35' W 122°22'0 0.0
2015-May-24 01:29N 47°35' W 122°22'0 0.0
2015-May-24 01:11N 47°35' W 122°22'0 0.0
2015-May-24 00:23N 47°35' W 122°22'0 0.0
2015-May-23 23:41N 47°35' W 122°22'0 0.0
2015-May-23 23:23N 47°35' W 122°22'0 0.0
2015-May-23 23:20N 47°35' W 122°22'0 0.0
2015-May-23 22:20N 47°35' W 122°22'0 0.0
2015-May-23 22:20N 47°35' W 122°22'0 0.0
2015-May-23 21:17N 47°35' W 122°22'0 0.0
2015-May-23 20:29N 47°35' W 122°22'0 0.0
2015-May-23 19:53N 47°35' W 122°22'0 0.0
2015-May-23 19:29N 47°35' W 122°22'0 0.0
2015-May-23 18:53N 47°35' W 122°22'0 0.0
2015-May-23 18:32N 47°35' W 122°22'0 0.0
2015-May-23 18:23N 47°35' W 122°22'0 0.0
2015-May-23 17:32N 47°35' W 122°22'0 0.0
2015-May-23 16:26N 47°35' W 122°22'0 0.0
2015-May-23 16:17N 47°35' W 122°22'0 0.0
2015-May-23 15:29N 47°35' W 122°22'0 0.0
2015-May-23 15:11N 47°35' W 122°22'0 0.0
2015-May-23 14:29N 47°35' W 122°22'0 0.0
2015-May-23 14:26N 47°35' W 122°22'0 0.0
2015-May-23 13:26N 47°35' W 122°22'0 0.0
2015-May-23 13:26N 47°35' W 122°22'0 0.0
2015-May-23 12:29N 47°35' W 122°22'0 0.0
2015-May-23 12:05N 47°35' W 122°22'0 0.0
2015-May-23 11:20N 47°35' W 122°22'0 0.0
2015-May-23 11:20N 47°35' W 122°22'0 0.0
2015-May-23 10:17N 47°35' W 122°22'0 0.0
2015-May-23 09:59N 47°35' W 122°22'0 0.0
2015-May-23 09:32N 47°35' W 122°22'0 0.0
2015-May-23 09:14N 47°35' W 122°22'0 0.0
2015-May-23 08:29N 47°35' W 122°22'0 0.0
2015-May-23 08:29N 47°35' W 122°22'0 0.0
2015-May-23 07:29N 47°35' W 122°22'0 0.0
2015-May-23 07:29N 47°35' W 122°22'0 0.0
2015-May-23 06:29N 47°35' W 122°22'0 0.0
2015-May-23 05:20N 47°35' W 122°22'0 0.0
2015-May-23 04:05N 47°35' W 122°22'0 0.0
2015-May-23 03:32N 47°35' W 122°22'0 0.0
2015-May-23 02:32N 47°35' W 122°22'0 0.0
2015-May-23 01:14N 47°35' W 122°22'0 0.0
2015-May-23 01:14N 47°35' W 122°22'0 0.0
2015-May-23 00:29N 47°35' W 122°22'0 0.0
2015-May-23 00:29N 47°35' W 122°22'0 0.0
2015-May-22 23:26N 47°35' W 122°22'0 0.0
2015-May-22 22:26N 47°35' W 122°22'0 0.0
2015-May-22 22:08N 47°35' W 122°22'0 0.0
2015-May-22 21:23N 47°35' W 122°22'0 0.0
2015-May-22 21:23N 47°35' W 122°22'0 0.0
2015-May-22 20:23N 47°35' W 122°22'0 0.0
2015-May-22 20:23N 47°35' W 122°22'0 0.0
2015-May-22 19:32N 47°35' W 122°22'0 0.0
2015-May-22 18:32N 47°35' W 122°22'0 0.0
2015-May-22 17:20N 47°35' W 122°22'0 0.0
2015-May-22 16:32N 47°35' W 122°22'0 0.0
2015-May-22 14:32N 47°35' W 122°22'0 0.0
2015-May-22 13:20N 47°35' W 122°22'0 0.0
2015-May-22 13:08N 47°35' W 122°22'0 0.0
2015-May-22 11:47N 47°35' W 122°22'0 0.0
2015-May-22 11:32N 47°35' W 122°22'0 0.0
2015-May-22 11:32N 47°35' W 122°22'0 0.0
2015-May-22 10:32N 47°35' W 122°22'0 0.0
2015-May-22 10:32N 47°35' W 122°22'0 0.0
2015-May-22 09:29N 47°35' W 122°22'0 0.0
2015-May-22 08:11N 47°35' W 122°22'0 0.0
2015-May-22 07:23N 47°35' W 122°22'0 0.0
2015-May-22 06:08N 47°35' W 122°22'0 0.0
2015-May-22 05:29N 47°35' W 122°22'0 0.0
2015-May-22 05:29N 47°35' W 122°22'0 0.0
2015-May-22 04:26N 47°35' W 122°22'0 0.0
2015-May-22 04:08N 47°35' W 122°22'0 0.0
2015-May-22 03:08N 47°35' W 122°22'0 0.0
2015-May-22 03:08N 47°35' W 122°22'0 0.0
2015-May-22 02:20N 47°35' W 122°22'0 0.0
2015-May-22 01:17N 47°35' W 122°22'0 0.0
2015-May-22 00:47N 47°35' W 122°22'0 0.0
2015-May-22 00:32N 47°35' W 122°22'0 0.0
2015-May-22 00:32N 47°35' W 122°22'0 0.0
2015-May-21 23:29N 47°35' W 122°22'0 0.0
2015-May-21 22:29N 47°35' W 122°22'0 0.0
2015-May-21 22:26N 47°35' W 122°22'0 0.0
2015-May-21 21:26N 47°35' W 122°22'0 0.0
2015-May-21 20:29N 47°35' W 122°22'0 0.0
2015-May-21 18:05N 47°35' W 122°22'0 0.0
2015-May-21 17:32N 47°35' W 122°22'0 0.0
2015-May-21 16:20N 47°35' W 122°22'0 0.0
2015-May-21 15:20N 47°35' W 122°22'0 0.0
2015-May-21 15:02N 47°35' W 122°22'0 0.0
2015-May-21 14:32N 47°35' W 122°22'0 0.0
2015-May-21 14:32N 47°35' W 122°22'0 0.0
2015-May-21 13:32N 47°35' W 122°22'0 0.0
2015-May-21 13:32N 47°35' W 122°22'0 0.0
2015-May-21 12:17N 47°35' W 122°22'0 0.0
2015-May-21 11:56N 47°35' W 122°22'0 0.0
2015-May-21 11:26N 47°35' W 122°22'0 0.0
2015-May-21 11:26N 47°35' W 122°22'0 0.0
2015-May-21 10:32N 47°35' W 122°22'0 0.0
2015-May-21 09:50N 47°35' W 122°22'0 0.0
2015-May-21 09:23N 47°35' W 122°22'0 0.0
2015-May-21 08:26N 47°35' W 122°22'0 0.0
2015-May-21 06:59N 47°35' W 122°22'0 0.0
2015-May-21 06:14N 47°35' W 122°22'0 0.0
2015-May-21 05:59N 47°35' W 122°22'0 0.0
2015-May-21 05:26N 47°35' W 122°22'0 0.0
2015-May-21 04:32N 47°35' W 122°22'0 0.0
2015-May-21 02:53N 47°35' W 122°22'0 0.0
2015-May-21 02:11N 47°35' W 122°22'0 0.0
2015-May-21 01:32N 47°35' W 122°22'0 0.0
2015-May-21 01:29N 47°35' W 122°22'0 0.0
2015-May-21 00:29N 47°35' W 122°22'0 0.0
2015-May-20 23:29N 47°35' W 122°22'0 0.0
2015-May-20 22:11N 47°35' W 122°22'0 0.0
2015-May-20 22:11N 47°35' W 122°22'0 0.0
2015-May-20 20:23N 47°35' W 122°22'0 0.0
2015-May-20 19:17N 47°35' W 122°22'0 0.0
2015-May-20 19:05N 47°35' W 122°22'0 0.0
2015-May-20 18:23N 47°35' W 122°22'0 0.0
2015-May-20 17:11N 47°35' W 122°22'0 0.0
2015-May-20 16:26N 47°35' W 122°22'0 0.0
2015-May-20 16:08N 47°35' W 122°22'0 0.0
2015-May-20 15:17N 47°35' W 122°22'0 0.0
2015-May-20 10:23N 47°35' W 122°22'0 0.0
2015-May-20 08:59N 47°35' W 122°22'0 0.0
2015-May-20 08:11N 47°35' W 122°22'0 0.0
2015-May-20 07:23N 47°35' W 122°22'0 0.0
2015-May-20 06:08N 47°35' W 122°22'0 0.0
2015-May-20 06:05N 47°35' W 122°22'0 0.0
2015-May-19 16:05N 47°35' W 122°22'0 0.0
2015-May-19 13:23N 47°35' W 122°22'0 0.0
2015-May-19 12:05N 47°35' W 122°22'0 0.0
2015-May-19 11:40N 47°35' W 122°22'0 0.0
2015-May-19 11:32N 47°35' W 122°22'0 0.0
2015-May-19 11:10N 47°35' W 122°22'0 0.0
2015-May-19 10:29N 47°35' W 122°22'0 0.0
2015-May-19 10:25N 47°35' W 122°22'0 0.0
2015-May-19 09:32N 47°35' W 122°22'0 0.0
2015-May-19 09:04N 47°35' W 122°22'0 0.0
2015-May-19 08:32N 47°35' W 122°22'0 0.0
2015-May-19 08:04N 47°35' W 122°22'0 0.0
2015-May-19 07:32N 47°35' W 122°22'0 0.0
2015-May-19 07:19N 47°35' W 122°22'0 0.0
2015-May-19 06:32N 47°35' W 122°22'0 0.0
2015-May-19 06:04N 47°35' W 122°22'0 0.0
2015-May-19 05:32N 47°35' W 122°22'0 0.0
2015-May-19 05:28N 47°35' W 122°22'0 0.0
2015-May-19 04:32N 47°35' W 122°22'0 0.0
2015-May-19 04:28N 47°35' W 122°22'0 0.0
2015-May-19 02:40N 47°35' W 122°22'0 0.0
2015-May-19 02:32N 47°35' W 122°22'0 0.0
2015-May-19 02:25N 47°35' W 122°22'0 0.0
2015-May-19 01:32N 47°35' W 122°22'0 0.0
2015-May-19 01:11N 47°35' W 122°22'0 0.0
2015-May-19 00:29N 47°35' W 122°22'0 0.0
2015-May-18 23:55N 47°35' W 122°22'0 0.0
2015-May-18 23:32N 47°35' W 122°22'0 0.0
2015-May-18 23:25N 47°35' W 122°22'0 0.0
2015-May-18 22:20N 47°35' W 122°22'0 0.0
2015-May-18 22:19N 47°35' W 122°22'0 0.0
2015-May-18 21:32N 47°35' W 122°22'0 0.0
2015-May-18 21:28N 47°35' W 122°22'0 0.0
2015-May-18 20:29N 47°35' W 122°22'0 0.0
2015-May-18 20:28N 47°35' W 122°22'0 0.0
2015-May-18 19:32N 47°35' W 122°22'0 0.0
2015-May-18 19:13N 47°35' W 122°22'0 0.0
2015-May-18 18:17N 47°35' W 122°22'0 0.0
2015-May-18 18:07N 47°35' W 122°22'0 0.0
2015-May-18 17:29N 47°35' W 122°22'0 0.0
2015-May-18 17:01N 47°35' W 122°22'0 0.0
2015-May-18 16:32N 47°35' W 122°22'0 0.0
2015-May-18 16:31N 47°35' W 122°22'0 0.0
2015-May-18 15:29N 47°35' W 122°22'0 0.0
2015-May-18 15:16N 47°35' W 122°22'0 0.0
2015-May-18 14:28N 47°35' W 122°22'0 0.0
2015-May-18 13:55N 47°35' W 122°22'0 0.0
2015-May-18 13:19N 47°35' W 122°22'0 0.0
2015-May-18 13:14N 47°35' W 122°22'0 0.0
2015-May-18 12:32N 47°35' W 122°22'0 0.0
2015-May-18 12:19N 47°35' W 122°22'0 0.0
2015-May-18 11:29N 47°35' W 122°22'0 0.0
2015-May-18 11:19N 47°35' W 122°22'0 0.0
2015-May-18 10:16N 47°35' W 122°22'0 0.0
2015-May-18 10:13N 47°35' W 122°22'0 0.0
2015-May-18 09:11N 47°35' W 122°22'0 0.0
2015-May-18 09:07N 47°35' W 122°22'0 0.0
2015-May-18 08:32N 47°35' W 122°22'0 0.0
2015-May-18 08:07N 47°35' W 122°22'0 0.0
2015-May-18 07:32N 47°35' W 122°22'0 0.0
2015-May-18 07:22N 47°35' W 122°22'0 0.0
2015-May-18 06:32N 47°35' W 122°22'0 0.0
2015-May-18 06:31N 47°35' W 122°22'0 0.0
2015-May-18 05:40N 47°35' W 122°22'0 0.0
2015-May-18 05:31N 47°35' W 122°22'0 0.0
2015-May-18 04:32N 47°35' W 122°22'0 0.0
2015-May-18 04:25N 47°35' W 122°22'0 0.0
2015-May-18 03:31N 47°35' W 122°22'0 0.0
2015-May-18 03:25N 47°35' W 122°22'0 0.0
2015-May-18 02:28N 47°35' W 122°22'0 0.0
2015-May-18 02:19N 47°35' W 122°22'0 0.0
2015-May-18 01:32N 47°35' W 122°22'0 0.0
2015-May-18 01:28N 47°35' W 122°22'0 0.0
2015-May-18 00:32N 47°35' W 122°22'0 0.0
2015-May-18 00:28N 47°35' W 122°22'0 0.0
2015-May-17 23:31N 47°35' W 122°22'0 0.0
2015-May-17 23:28N 47°35' W 122°22'0 0.0
2015-May-17 22:25N 47°35' W 122°22'0 0.0
2015-May-17 21:52N 47°35' W 122°22'0 0.0
2015-May-17 21:28N 47°35' W 122°22'0 0.0
2015-May-17 21:22N 47°35' W 122°22'0 0.0
2015-May-17 20:28N 47°35' W 122°22'0 0.0
2015-May-17 19:46N 47°35' W 122°22'0 0.0
2015-May-17 19:13N 47°35' W 122°22'0 0.0
2015-May-17 19:01N 47°35' W 122°22'0 0.0
2015-May-17 18:31N 47°35' W 122°22'0 0.0
2015-May-17 18:31N 47°35' W 122°22'0 0.0
2015-May-17 17:31N 47°35' W 122°22'0 0.0
2015-May-17 17:31N 47°35' W 122°22'0 0.0
2015-May-17 16:31N 47°35' W 122°22'0 0.0
2015-May-17 15:34N 47°35' W 122°22'0 0.0
2015-May-17 15:28N 47°35' W 122°22'0 0.0
2015-May-17 14:25N 47°35' W 122°22'0 0.0
2015-May-17 14:13N 47°35' W 122°22'0 0.0
2015-May-17 13:31N 47°35' W 122°22'0 0.0
2015-May-17 13:16N 47°35' W 122°22'0 0.0
2015-May-17 12:31N 47°35' W 122°22'0 0.0
2015-May-17 12:28N 47°35' W 122°22'0 0.0
2015-May-17 11:25N 47°35' W 122°22'0 0.0
2015-May-17 11:25N 47°35' W 122°22'0 0.0
2015-May-17 10:28N 47°35' W 122°22'0 0.0
2015-May-17 10:25N 47°35' W 122°22'0 0.0
2015-May-17 09:19N 47°35' W 122°22'0 0.0
2015-May-17 09:19N 47°35' W 122°22'0 0.0
2015-May-17 08:31N 47°35' W 122°22'0 0.0
2015-May-17 08:28N 47°35' W 122°22'0 0.0
2015-May-17 07:31N 47°35' W 122°22'0 0.0
2015-May-17 07:28N 47°35' W 122°22'0 0.0
2015-May-17 06:31N 47°35' W 122°22'0 0.0
2015-May-17 06:28N 47°35' W 122°22'0 0.0
2015-May-17 05:28N 47°35' W 122°22'0 0.0
2015-May-17 05:25N 47°35' W 122°22'0 0.0
2015-May-17 04:31N 47°35' W 122°22'0 0.0
2015-May-17 04:28N 47°35' W 122°22'0 0.0
2015-May-17 03:31N 47°35' W 122°22'0 0.0
2015-May-17 02:52N 47°35' W 122°22'0 0.0
2015-May-17 02:31N 47°35' W 122°22'0 0.0
2015-May-17 02:22N 47°35' W 122°22'0 0.0
2015-May-17 01:28N 47°35' W 122°22'0 0.0
2015-May-17 01:25N 47°35' W 122°22'0 0.0
2015-May-17 00:31N 47°35' W 122°22'0 0.0
2015-May-16 23:34N 47°35' W 122°22'0 0.0
2015-May-16 23:31N 47°35' W 122°22'0 0.0
2015-May-16 23:19N 47°35' W 122°22'0 0.0
2015-May-16 22:31N 47°35' W 122°22'0 0.0
2015-May-16 22:28N 47°35' W 122°22'0 0.0
2015-May-16 21:31N 47°35' W 122°22'0 0.0
2015-May-16 21:28N 47°35' W 122°22'0 0.0
2015-May-16 20:31N 47°35' W 122°22'0 0.0
2015-May-16 20:28N 47°35' W 122°22'0 0.0
2015-May-16 19:31N 47°35' W 122°22'0 0.0
2015-May-16 19:28N 47°35' W 122°22'0 0.0
2015-May-16 18:31N 47°35' W 122°22'0 0.0
2015-May-16 18:07N 47°35' W 122°22'0 0.0
2015-May-16 17:07N 47°35' W 122°22'0 0.0
2015-May-16 17:07N 47°35' W 122°22'0 0.0
2015-May-16 16:31N 47°35' W 122°22'0 0.0
2015-May-16 16:31N 47°35' W 122°22'0 0.0
2015-May-16 15:28N 47°35' W 122°22'0 0.0
2015-May-16 14:28N 47°35' W 122°22'0 0.0
2015-May-16 14:04N 47°35' W 122°22'0 0.0
2015-May-16 13:28N 47°35' W 122°22'0 0.0
2015-May-16 13:19N 47°35' W 122°22'0 0.0
2015-May-16 12:31N 47°35' W 122°22'0 0.0
2015-May-16 12:19N 47°35' W 122°22'0 0.0
2015-May-16 11:31N 47°35' W 122°22'0 0.0
2015-May-16 11:19N 47°35' W 122°22'0 0.0
2015-May-16 10:25N 47°35' W 122°22'0 0.0
2015-May-16 10:19N 47°35' W 122°22'0 0.0
2015-May-16 09:31N 47°35' W 122°22'0 0.0
2015-May-16 09:28N 47°35' W 122°22'0 0.0
2015-May-16 08:31N 47°35' W 122°22'0 0.0
2015-May-16 08:28N 47°35' W 122°22'0 0.0
2015-May-16 07:31N 47°35' W 122°22'0 0.0
2015-May-16 07:28N 47°35' W 122°22'0 0.0
2015-May-16 06:31N 47°35' W 122°22'0 0.0
2015-May-16 06:22N 47°35' W 122°22'0 0.0
2015-May-16 05:52N 47°35' W 122°22'0 0.0
2015-May-16 05:31N 47°35' W 122°22'  

Dump ship's entire track history